sensor_id;sensor_type;location;lat;lon;timestamp;temperature;humidity
8527;DHT22;4301;48.362;8.478;2023-05-10T00:02:03;11.40;99.90
8527;DHT22;4301;48.362;8.478;2023-05-10T00:04:30;11.40;99.90
8527;DHT22;4301;48.362;8.478;2023-05-10T00:06:58;11.40;99.90
8527;DHT22;4301;48.362;8.478;2023-05-10T00:09:24;11.30;99.90
8527;DHT22;4301;48.362;8.478;2023-05-10T00:11:51;11.30;99.90
8527;DHT22;4301;48.362;8.478;2023-05-10T00:14:18;11.20;99.90
8527;DHT22;4301;48.362;8.478;2023-05-10T00:16:47;11.20;99.90
8527;DHT22;4301;48.362;8.478;2023-05-10T00:19:13;11.20;99.90
8527;DHT22;4301;48.362;8.478;2023-05-10T00:21:40;11.20;99.90
8527;DHT22;4301;48.362;8.478;2023-05-10T00:24:07;11.20;99.90
8527;DHT22;4301;48.362;8.478;2023-05-10T00:26:34;11.20;99.90
8527;DHT22;4301;48.362;8.478;2023-05-10T00:29:01;11.20;99.90
8527;DHT22;4301;48.362;8.478;2023-05-10T00:31:28;11.20;99.90
8527;DHT22;4301;48.362;8.478;2023-05-10T00:33:56;11.20;99.90
8527;DHT22;4301;48.362;8.478;2023-05-10T00:36:23;11.20;99.90
8527;DHT22;4301;48.362;8.478;2023-05-10T00:38:50;11.20;99.90
8527;DHT22;4301;48.362;8.478;2023-05-10T00:41:17;11.20;99.90
8527;DHT22;4301;48.362;8.478;2023-05-10T00:43:44;11.20;99.90
8527;DHT22;4301;48.362;8.478;2023-05-10T00:46:11;11.20;99.90
8527;DHT22;4301;48.362;8.478;2023-05-10T00:48:38;11.20;99.90
8527;DHT22;4301;48.362;8.478;2023-05-10T00:51:07;11.20;99.90
8527;DHT22;4301;48.362;8.478;2023-05-10T00:53:34;11.20;99.90
8527;DHT22;4301;48.362;8.478;2023-05-10T00:56:02;11.20;99.90
8527;DHT22;4301;48.362;8.478;2023-05-10T00:58:29;11.20;99.90
8527;DHT22;4301;48.362;8.478;2023-05-10T01:00:56;11.20;99.90
8527;DHT22;4301;48.362;8.478;2023-05-10T01:03:25;11.20;99.90
8527;DHT22;4301;48.362;8.478;2023-05-10T01:05:51;11.10;99.90
8527;DHT22;4301;48.362;8.478;2023-05-10T01:08:20;11.20;99.90
8527;DHT22;4301;48.362;8.478;2023-05-10T01:10:47;11.10;99.90
8527;DHT22;4301;48.362;8.478;2023-05-10T01:13:18;11.10;99.90
8527;DHT22;4301;48.362;8.478;2023-05-10T01:15:49;11.10;99.90
8527;DHT22;4301;48.362;8.478;2023-05-10T01:18:18;11.10;99.90
8527;DHT22;4301;48.362;8.478;2023-05-10T01:20:50;11.10;99.90
8527;DHT22;4301;48.362;8.478;2023-05-10T01:23:41;11.20;99.90
8527;DHT22;4301;48.362;8.478;2023-05-10T01:26:31;11.10;99.90
8527;DHT22;4301;48.362;8.478;2023-05-10T01:29:14;11.10;99.90
8527;DHT22;4301;48.362;8.478;2023-05-10T01:32:20;11.10;99.90
8527;DHT22;4301;48.362;8.478;2023-05-10T01:34:53;11.10;99.90
8527;DHT22;4301;48.362;8.478;2023-05-10T01:37:27;11.00;99.90
8527;DHT22;4301;48.362;8.478;2023-05-10T01:40:01;11.00;99.90
8527;DHT22;4301;48.362;8.478;2023-05-10T01:42:35;11.00;99.90
8527;DHT22;4301;48.362;8.478;2023-05-10T01:45:11;10.90;99.90
8527;DHT22;4301;48.362;8.478;2023-05-10T01:47:43;10.90;99.90
8527;DHT22;4301;48.362;8.478;2023-05-10T01:50:15;10.90;99.90
8527;DHT22;4301;48.362;8.478;2023-05-10T01:52:49;10.90;99.90
8527;DHT22;4301;48.362;8.478;2023-05-10T01:55:19;10.90;99.90
8527;DHT22;4301;48.362;8.478;2023-05-10T01:57:48;10.90;99.90
8527;DHT22;4301;48.362;8.478;2023-05-10T02:00:15;10.90;99.90
8527;DHT22;4301;48.362;8.478;2023-05-10T02:02:47;10.90;99.90
8527;DHT22;4301;48.362;8.478;2023-05-10T02:05:16;10.90;99.90
8527;DHT22;4301;48.362;8.478;2023-05-10T02:07:44;10.90;99.90
8527;DHT22;4301;48.362;8.478;2023-05-10T02:10:11;10.90;99.90
8527;DHT22;4301;48.362;8.478;2023-05-10T02:12:42;10.90;99.90
8527;DHT22;4301;48.362;8.478;2023-05-10T02:15:11;10.90;99.90
8527;DHT22;4301;48.362;8.478;2023-05-10T02:17:39;10.90;99.90
8527;DHT22;4301;48.362;8.478;2023-05-10T02:20:10;10.90;99.90
8527;DHT22;4301;48.362;8.478;2023-05-10T02:22:39;10.90;99.90
8527;DHT22;4301;48.362;8.478;2023-05-10T02:25:08;10.90;99.90
8527;DHT22;4301;48.362;8.478;2023-05-10T02:27:36;10.90;99.90
8527;DHT22;4301;48.362;8.478;2023-05-10T02:30:05;10.90;99.90
8527;DHT22;4301;48.362;8.478;2023-05-10T02:32:34;10.90;99.90
8527;DHT22;4301;48.362;8.478;2023-05-10T02:35:02;10.90;99.90
8527;DHT22;4301;48.362;8.478;2023-05-10T02:37:31;10.90;99.90
8527;DHT22;4301;48.362;8.478;2023-05-10T02:40:00;10.90;99.90
8527;DHT22;4301;48.362;8.478;2023-05-10T02:42:31;10.90;99.90
8527;DHT22;4301;48.362;8.478;2023-05-10T02:45:01;10.80;99.90
8527;DHT22;4301;48.362;8.478;2023-05-10T02:47:28;10.80;99.90
8527;DHT22;4301;48.362;8.478;2023-05-10T02:49:56;10.80;99.90
8527;DHT22;4301;48.362;8.478;2023-05-10T02:52:24;10.80;99.90
8527;DHT22;4301;48.362;8.478;2023-05-10T02:54:55;10.80;99.90
8527;DHT22;4301;48.362;8.478;2023-05-10T02:57:27;10.80;99.90
8527;DHT22;4301;48.362;8.478;2023-05-10T02:59:55;10.80;99.90
8527;DHT22;4301;48.362;8.478;2023-05-10T03:02:22;10.80;99.90
8527;DHT22;4301;48.362;8.478;2023-05-10T03:04:49;10.80;99.90
8527;DHT22;4301;48.362;8.478;2023-05-10T03:07:16;10.80;99.90
8527;DHT22;4301;48.362;8.478;2023-05-10T03:09:46;10.90;99.90
8527;DHT22;4301;48.362;8.478;2023-05-10T03:12:21;10.90;99.90
8527;DHT22;4301;48.362;8.478;2023-05-10T03:14:56;10.80;99.90
8527;DHT22;4301;48.362;8.478;2023-05-10T03:17:30;10.80;99.90
8527;DHT22;4301;48.362;8.478;2023-05-10T03:20:01;10.80;99.90
8527;DHT22;4301;48.362;8.478;2023-05-10T03:22:32;10.80;99.90
8527;DHT22;4301;48.362;8.478;2023-05-10T03:25:03;10.80;99.90
8527;DHT22;4301;48.362;8.478;2023-05-10T03:27:32;10.70;99.90
8527;DHT22;4301;48.362;8.478;2023-05-10T03:30:01;10.70;99.90
8527;DHT22;4301;48.362;8.478;2023-05-10T03:32:29;10.70;99.90
8527;DHT22;4301;48.362;8.478;2023-05-10T03:34:57;10.70;99.90
8527;DHT22;4301;48.362;8.478;2023-05-10T03:37:24;10.70;99.90
8527;DHT22;4301;48.362;8.478;2023-05-10T03:39:51;10.70;99.90
8527;DHT22;4301;48.362;8.478;2023-05-10T03:42:18;10.70;99.90
8527;DHT22;4301;48.362;8.478;2023-05-10T03:44:46;10.70;99.90
8527;DHT22;4301;48.362;8.478;2023-05-10T03:47:14;10.80;99.90
8527;DHT22;4301;48.362;8.478;2023-05-10T03:49:41;10.80;99.90
8527;DHT22;4301;48.362;8.478;2023-05-10T03:52:08;10.80;99.90
8527;DHT22;4301;48.362;8.478;2023-05-10T03:54:35;10.80;99.90
8527;DHT22;4301;48.362;8.478;2023-05-10T03:57:02;10.80;99.90
8527;DHT22;4301;48.362;8.478;2023-05-10T03:59:29;10.80;99.90
8527;DHT22;4301;48.362;8.478;2023-05-10T04:01:58;10.80;99.90
8527;DHT22;4301;48.362;8.478;2023-05-10T04:04:24;10.80;99.90
8527;DHT22;4301;48.362;8.478;2023-05-10T04:06:51;10.80;99.90
8527;DHT22;4301;48.362;8.478;2023-05-10T04:09:18;10.80;99.90
8527;DHT22;4301;48.362;8.478;2023-05-10T04:11:45;10.80;99.90
8527;DHT22;4301;48.362;8.478;2023-05-10T04:14:12;10.90;99.90
8527;DHT22;4301;48.362;8.478;2023-05-10T04:16:39;10.80;99.90
8527;DHT22;4301;48.362;8.478;2023-05-10T04:19:07;10.80;99.90
8527;DHT22;4301;48.362;8.478;2023-05-10T04:21:34;10.80;99.90
8527;DHT22;4301;48.362;8.478;2023-05-10T04:24:01;10.80;99.90
8527;DHT22;4301;48.362;8.478;2023-05-10T04:26:28;10.80;99.90
8527;DHT22;4301;48.362;8.478;2023-05-10T04:28:55;10.80;99.90
8527;DHT22;4301;48.362;8.478;2023-05-10T04:31:22;10.80;99.90
8527;DHT22;4301;48.362;8.478;2023-05-10T04:33:49;10.80;99.90
8527;DHT22;4301;48.362;8.478;2023-05-10T04:36:17;10.80;99.90
8527;DHT22;4301;48.362;8.478;2023-05-10T04:38:44;10.70;99.90
8527;DHT22;4301;48.362;8.478;2023-05-10T04:41:11;10.70;99.90
8527;DHT22;4301;48.362;8.478;2023-05-10T04:43:38;10.70;99.90
8527;DHT22;4301;48.362;8.478;2023-05-10T04:46:05;10.70;99.90
8527;DHT22;4301;48.362;8.478;2023-05-10T04:48:32;10.70;99.90
8527;DHT22;4301;48.362;8.478;2023-05-10T04:50:59;10.70;99.90
8527;DHT22;4301;48.362;8.478;2023-05-10T04:53:28;10.80;99.90
8527;DHT22;4301;48.362;8.478;2023-05-10T04:55:55;10.70;99.90
8527;DHT22;4301;48.362;8.478;2023-05-10T04:58:22;10.80;99.90
8527;DHT22;4301;48.362;8.478;2023-05-10T05:00:49;10.80;99.90
8527;DHT22;4301;48.362;8.478;2023-05-10T05:03:15;10.80;99.90
8527;DHT22;4301;48.362;8.478;2023-05-10T05:05:43;10.80;99.90
8527;DHT22;4301;48.362;8.478;2023-05-10T05:08:10;10.80;99.90
8527;DHT22;4301;48.362;8.478;2023-05-10T05:10:38;10.80;99.90
8527;DHT22;4301;48.362;8.478;2023-05-10T05:13:05;10.80;99.90
8527;DHT22;4301;48.362;8.478;2023-05-10T05:15:33;10.80;99.90
8527;DHT22;4301;48.362;8.478;2023-05-10T05:18:00;10.80;99.90
8527;DHT22;4301;48.362;8.478;2023-05-10T05:20:26;10.80;99.90
8527;DHT22;4301;48.362;8.478;2023-05-10T05:22:53;10.90;99.90
8527;DHT22;4301;48.362;8.478;2023-05-10T05:25:20;10.90;99.90
8527;DHT22;4301;48.362;8.478;2023-05-10T05:27:49;11.00;99.90
8527;DHT22;4301;48.362;8.478;2023-05-10T05:30:16;11.00;99.90
8527;DHT22;4301;48.362;8.478;2023-05-10T05:32:43;11.00;99.90
8527;DHT22;4301;48.362;8.478;2023-05-10T05:35:10;11.00;99.90
8527;DHT22;4301;48.362;8.478;2023-05-10T05:37:37;10.90;99.90
8527;DHT22;4301;48.362;8.478;2023-05-10T05:40:04;11.00;99.90
8527;DHT22;4301;48.362;8.478;2023-05-10T05:42:32;11.00;99.90
8527;DHT22;4301;48.362;8.478;2023-05-10T05:45:00;11.00;99.90
8527;DHT22;4301;48.362;8.478;2023-05-10T05:47:27;11.00;99.90
8527;DHT22;4301;48.362;8.478;2023-05-10T05:49:54;11.00;99.90
8527;DHT22;4301;48.362;8.478;2023-05-10T05:52:21;11.00;99.90
8527;DHT22;4301;48.362;8.478;2023-05-10T05:54:48;11.00;99.90
8527;DHT22;4301;48.362;8.478;2023-05-10T05:57:15;11.10;99.90
8527;DHT22;4301;48.362;8.478;2023-05-10T05:59:42;11.10;99.90
8527;DHT22;4301;48.362;8.478;2023-05-10T06:02:10;11.10;99.90
8527;DHT22;4301;48.362;8.478;2023-05-10T06:04:37;11.20;99.90
8527;DHT22;4301;48.362;8.478;2023-05-10T06:07:04;11.20;99.90
8527;DHT22;4301;48.362;8.478;2023-05-10T06:09:31;11.30;99.90
8527;DHT22;4301;48.362;8.478;2023-05-10T06:11:58;11.30;99.90
8527;DHT22;4301;48.362;8.478;2023-05-10T06:14:25;11.30;99.90
8527;DHT22;4301;48.362;8.478;2023-05-10T06:16:52;11.30;99.90
8527;DHT22;4301;48.362;8.478;2023-05-10T06:19:21;11.30;99.90
8527;DHT22;4301;48.362;8.478;2023-05-10T06:21:48;11.20;99.90
8527;DHT22;4301;48.362;8.478;2023-05-10T06:24:15;11.10;99.90
8527;DHT22;4301;48.362;8.478;2023-05-10T06:26:41;11.10;99.90
8527;DHT22;4301;48.362;8.478;2023-05-10T06:29:08;11.10;99.90
8527;DHT22;4301;48.362;8.478;2023-05-10T06:31:35;11.10;99.90
8527;DHT22;4301;48.362;8.478;2023-05-10T06:34:02;11.20;99.90
8527;DHT22;4301;48.362;8.478;2023-05-10T06:36:31;11.30;99.90
8527;DHT22;4301;48.362;8.478;2023-05-10T06:38:57;11.40;99.90
8527;DHT22;4301;48.362;8.478;2023-05-10T06:41:24;11.50;99.90
8527;DHT22;4301;48.362;8.478;2023-05-10T06:43:51;11.60;99.90
8527;DHT22;4301;48.362;8.478;2023-05-10T06:46:18;11.70;99.90
8527;DHT22;4301;48.362;8.478;2023-05-10T06:48:45;11.70;99.90
8527;DHT22;4301;48.362;8.478;2023-05-10T06:51:12;11.60;99.90
8527;DHT22;4301;48.362;8.478;2023-05-10T06:53:40;11.70;99.90
8527;DHT22;4301;48.362;8.478;2023-05-10T06:56:07;11.80;99.90
8527;DHT22;4301;48.362;8.478;2023-05-10T06:58:34;11.80;99.90
8527;DHT22;4301;48.362;8.478;2023-05-10T07:01:02;11.80;99.90
8527;DHT22;4301;48.362;8.478;2023-05-10T07:03:29;11.80;99.90
8527;DHT22;4301;48.362;8.478;2023-05-10T07:06:00;11.90;99.90
8527;DHT22;4301;48.362;8.478;2023-05-10T07:08:29;12.00;99.90
8527;DHT22;4301;48.362;8.478;2023-05-10T07:11:01;12.00;99.90
8527;DHT22;4301;48.362;8.478;2023-05-10T07:13:29;12.00;99.90
8527;DHT22;4301;48.362;8.478;2023-05-10T07:15:56;11.90;99.90
8527;DHT22;4301;48.362;8.478;2023-05-10T07:18:24;11.90;99.90
8527;DHT22;4301;48.362;8.478;2023-05-10T07:20:51;12.00;99.90
8527;DHT22;4301;48.362;8.478;2023-05-10T07:23:18;11.90;99.90
8527;DHT22;4301;48.362;8.478;2023-05-10T07:25:46;11.80;99.90
8527;DHT22;4301;48.362;8.478;2023-05-10T07:28:15;11.70;99.90
8527;DHT22;4301;48.362;8.478;2023-05-10T07:30:43;11.60;99.90
8527;DHT22;4301;48.362;8.478;2023-05-10T07:33:11;11.60;99.90
8527;DHT22;4301;48.362;8.478;2023-05-10T07:35:39;11.80;99.90
8527;DHT22;4301;48.362;8.478;2023-05-10T07:38:06;11.90;99.90
8527;DHT22;4301;48.362;8.478;2023-05-10T07:40:33;12.00;99.90
8527;DHT22;4301;48.362;8.478;2023-05-10T07:43:00;12.20;80.90
8527;DHT22;4301;48.362;8.478;2023-05-10T07:45:29;12.40;86.90
8527;DHT22;4301;48.362;8.478;2023-05-10T07:47:56;12.60;82.40
8527;DHT22;4301;48.362;8.478;2023-05-10T07:50:23;12.80;1.00
8527;DHT22;4301;48.362;8.478;2023-05-10T07:52:50;12.80;38.20
8527;DHT22;4301;48.362;8.478;2023-05-10T07:55:18;12.90;42.00
8527;DHT22;4301;48.362;8.478;2023-05-10T07:57:46;13.10;49.20
8527;DHT22;4301;48.362;8.478;2023-05-10T08:00:17;13.10;4.90
8527;DHT22;4301;48.362;8.478;2023-05-10T08:02:45;13.20;5.30
8527;DHT22;4301;48.362;8.478;2023-05-10T08:05:13;13.20;43.20
8527;DHT22;4301;48.362;8.478;2023-05-10T08:07:40;13.10;1.00
8527;DHT22;4301;48.362;8.478;2023-05-10T08:10:08;12.90;13.90
8527;DHT22;4301;48.362;8.478;2023-05-10T08:12:36;12.70;1.00
8527;DHT22;4301;48.362;8.478;2023-05-10T08:15:04;12.30;45.30
8527;DHT22;4301;48.362;8.478;2023-05-10T08:17:32;12.20;99.90
8527;DHT22;4301;48.362;8.478;2023-05-10T08:20:00;12.20;99.90
8527;DHT22;4301;48.362;8.478;2023-05-10T08:22:27;11.90;99.90
8527;DHT22;4301;48.362;8.478;2023-05-10T08:24:54;11.90;99.90
8527;DHT22;4301;48.362;8.478;2023-05-10T08:27:21;11.80;99.90
8527;DHT22;4301;48.362;8.478;2023-05-10T08:29:48;11.70;99.90
8527;DHT22;4301;48.362;8.478;2023-05-10T08:32:15;11.80;99.90
8527;DHT22;4301;48.362;8.478;2023-05-10T08:34:42;11.90;99.90
8527;DHT22;4301;48.362;8.478;2023-05-10T08:37:10;11.90;99.90
8527;DHT22;4301;48.362;8.478;2023-05-10T08:39:38;12.00;99.90
8527;DHT22;4301;48.362;8.478;2023-05-10T08:42:06;11.90;99.90
8527;DHT22;4301;48.362;8.478;2023-05-10T08:44:35;11.90;99.90
8527;DHT22;4301;48.362;8.478;2023-05-10T08:47:05;12.00;99.90
8527;DHT22;4301;48.362;8.478;2023-05-10T08:49:32;12.10;99.90
8527;DHT22;4301;48.362;8.478;2023-05-10T08:52:02;12.30;99.90
8527;DHT22;4301;48.362;8.478;2023-05-10T08:54:33;12.50;99.90
8527;DHT22;4301;48.362;8.478;2023-05-10T08:57:00;12.70;94.30
8527;DHT22;4301;48.362;8.478;2023-05-10T08:59:27;12.80;91.10
8527;DHT22;4301;48.362;8.478;2023-05-10T09:01:57;12.90;49.70
8527;DHT22;4301;48.362;8.478;2023-05-10T09:04:24;13.20;73.90
8527;DHT22;4301;48.362;8.478;2023-05-10T09:06:52;13.40;20.70
8527;DHT22;4301;48.362;8.478;2023-05-10T09:09:21;13.30;1.00
8527;DHT22;4301;48.362;8.478;2023-05-10T09:11:52;13.20;13.90
8527;DHT22;4301;48.362;8.478;2023-05-10T09:14:20;13.20;34.70
8527;DHT22;4301;48.362;8.478;2023-05-10T09:16:47;13.40;13.60
8527;DHT22;4301;48.362;8.478;2023-05-10T09:19:14;13.90;15.00
8527;DHT22;4301;48.362;8.478;2023-05-10T09:21:41;14.20;1.00
8527;DHT22;4301;48.362;8.478;2023-05-10T09:24:09;14.50;1.00
8527;DHT22;4301;48.362;8.478;2023-05-10T09:26:45;15.00;1.00
8527;DHT22;4301;48.362;8.478;2023-05-10T09:29:15;15.20;1.00
8527;DHT22;4301;48.362;8.478;2023-05-10T09:31:46;15.00;1.00
8527;DHT22;4301;48.362;8.478;2023-05-10T09:34:17;15.50;1.00
8527;DHT22;4301;48.362;8.478;2023-05-10T09:36:51;15.30;1.00
8527;DHT22;4301;48.362;8.478;2023-05-10T09:39:19;15.50;1.00
8527;DHT22;4301;48.362;8.478;2023-05-10T09:41:47;15.30;1.00
8527;DHT22;4301;48.362;8.478;2023-05-10T09:44:18;15.80;1.00
8527;DHT22;4301;48.362;8.478;2023-05-10T09:46:50;15.90;99.90
8527;DHT22;4301;48.362;8.478;2023-05-10T09:49:18;16.30;99.90
8527;DHT22;4301;48.362;8.478;2023-05-10T09:51:46;16.30;16.50
8527;DHT22;4301;48.362;8.478;2023-05-10T09:54:14;16.10;99.90
8527;DHT22;4301;48.362;8.478;2023-05-10T09:56:42;16.40;99.90
8527;DHT22;4301;48.362;8.478;2023-05-10T09:59:10;16.30;1.00
8527;DHT22;4301;48.362;8.478;2023-05-10T10:01:41;16.20;1.00
8527;DHT22;4301;48.362;8.478;2023-05-10T10:04:09;15.80;1.00
8527;DHT22;4301;48.362;8.478;2023-05-10T10:06:38;15.20;1.00
8527;DHT22;4301;48.362;8.478;2023-05-10T10:09:06;14.30;99.90
8527;DHT22;4301;48.362;8.478;2023-05-10T10:11:34;13.60;99.90
8527;DHT22;4301;48.362;8.478;2023-05-10T10:14:02;13.00;99.90
8527;DHT22;4301;48.362;8.478;2023-05-10T10:16:30;12.80;1.00
8527;DHT22;4301;48.362;8.478;2023-05-10T10:18:58;12.50;1.00
8527;DHT22;4301;48.362;8.478;2023-05-10T10:21:26;12.40;1.00
8527;DHT22;4301;48.362;8.478;2023-05-10T10:23:53;12.10;1.00
8527;DHT22;4301;48.362;8.478;2023-05-10T10:26:21;12.00;1.00
8527;DHT22;4301;48.362;8.478;2023-05-10T10:28:59;12.00;1.00
8527;DHT22;4301;48.362;8.478;2023-05-10T10:31:34;11.80;1.00
8527;DHT22;4301;48.362;8.478;2023-05-10T10:34:07;11.90;13.20
8527;DHT22;4301;48.362;8.478;2023-05-10T10:36:40;11.70;1.00
8527;DHT22;4301;48.362;8.478;2023-05-10T10:39:09;11.60;1.00
8527;DHT22;4301;48.362;8.478;2023-05-10T10:41:40;11.80;1.00
8527;DHT22;4301;48.362;8.478;2023-05-10T10:44:39;11.90;1.00
8527;DHT22;4301;48.362;8.478;2023-05-10T10:47:23;12.00;1.00
8527;DHT22;4301;48.362;8.478;2023-05-10T10:50:04;12.00;16.90
8527;DHT22;4301;48.362;8.478;2023-05-10T10:52:33;12.00;5.10
8527;DHT22;4301;48.362;8.478;2023-05-10T10:55:02;12.20;1.00
8527;DHT22;4301;48.362;8.478;2023-05-10T10:57:42;12.10;1.00
8527;DHT22;4301;48.362;8.478;2023-05-10T11:00:22;12.30;1.00
8527;DHT22;4301;48.362;8.478;2023-05-10T11:02:50;12.20;1.00
8527;DHT22;4301;48.362;8.478;2023-05-10T11:05:37;12.20;1.00
8527;DHT22;4301;48.362;8.478;2023-05-10T11:08:10;12.40;1.00
8527;DHT22;4301;48.362;8.478;2023-05-10T11:10:39;12.60;1.00
8527;DHT22;4301;48.362;8.478;2023-05-10T11:13:08;12.60;1.00
8527;DHT22;4301;48.362;8.478;2023-05-10T11:15:37;12.90;1.00
8527;DHT22;4301;48.362;8.478;2023-05-10T11:18:17;13.00;1.00
8527;DHT22;4301;48.362;8.478;2023-05-10T11:20:51;13.40;99.90
8527;DHT22;4301;48.362;8.478;2023-05-10T11:23:19;13.80;99.90
8527;DHT22;4301;48.362;8.478;2023-05-10T11:25:48;14.20;99.90
8527;DHT22;4301;48.362;8.478;2023-05-10T11:28:17;14.40;1.00
8527;DHT22;4301;48.362;8.478;2023-05-10T11:30:45;14.80;1.00
8527;DHT22;4301;48.362;8.478;2023-05-10T11:33:16;14.60;99.90
8527;DHT22;4301;48.362;8.478;2023-05-10T11:35:45;14.60;24.90
8527;DHT22;4301;48.362;8.478;2023-05-10T11:38:13;14.70;1.00
8527;DHT22;4301;48.362;8.478;2023-05-10T11:40:41;15.00;1.00
8527;DHT22;4301;48.362;8.478;2023-05-10T11:43:09;15.40;1.00
8527;DHT22;4301;48.362;8.478;2023-05-10T11:45:36;15.70;99.90
8527;DHT22;4301;48.362;8.478;2023-05-10T11:48:04;16.00;1.00
8527;DHT22;4301;48.362;8.478;2023-05-10T11:50:31;16.20;1.00
8527;DHT22;4301;48.362;8.478;2023-05-10T11:52:58;16.10;99.90
8527;DHT22;4301;48.362;8.478;2023-05-10T11:55:26;15.80;1.00
8527;DHT22;4301;48.362;8.478;2023-05-10T11:58:00;15.80;1.00
8527;DHT22;4301;48.362;8.478;2023-05-10T12:00:27;15.50;1.00
8527;DHT22;4301;48.362;8.478;2023-05-10T12:02:55;15.60;99.90
8527;DHT22;4301;48.362;8.478;2023-05-10T12:05:22;15.60;36.00
8527;DHT22;4301;48.362;8.478;2023-05-10T12:07:49;15.70;99.90
8527;DHT22;4301;48.362;8.478;2023-05-10T12:10:17;15.60;99.90
8527;DHT22;4301;48.362;8.478;2023-05-10T12:12:52;15.80;1.00
8527;DHT22;4301;48.362;8.478;2023-05-10T12:15:21;15.60;1.00
8527;DHT22;4301;48.362;8.478;2023-05-10T12:17:49;15.30;99.90
8527;DHT22;4301;48.362;8.478;2023-05-10T12:20:17;15.10;1.00
8527;DHT22;4301;48.362;8.478;2023-05-10T12:22:50;15.00;99.90
8527;DHT22;4301;48.362;8.478;2023-05-10T12:25:19;14.80;99.90
8527;DHT22;4301;48.362;8.478;2023-05-10T12:27:53;14.80;99.90
8527;DHT22;4301;48.362;8.478;2023-05-10T12:30:22;14.70;99.90
8527;DHT22;4301;48.362;8.478;2023-05-10T12:32:49;14.60;1.00
8527;DHT22;4301;48.362;8.478;2023-05-10T12:35:17;14.60;1.00
8527;DHT22;4301;48.362;8.478;2023-05-10T12:37:46;14.70;1.00
8527;DHT22;4301;48.362;8.478;2023-05-10T12:40:13;14.50;1.00
8527;DHT22;4301;48.362;8.478;2023-05-10T12:42:40;15.10;99.90
8527;DHT22;4301;48.362;8.478;2023-05-10T12:45:09;15.00;1.00
8527;DHT22;4301;48.362;8.478;2023-05-10T12:47:37;15.60;99.90
8527;DHT22;4301;48.362;8.478;2023-05-10T12:50:05;15.70;99.90
8527;DHT22;4301;48.362;8.478;2023-05-10T12:52:32;15.30;99.90
8527;DHT22;4301;48.362;8.478;2023-05-10T12:54:59;15.00;1.00
8527;DHT22;4301;48.362;8.478;2023-05-10T12:57:27;15.00;99.90
8527;DHT22;4301;48.362;8.478;2023-05-10T12:59:54;15.30;1.00
8527;DHT22;4301;48.362;8.478;2023-05-10T13:02:23;15.70;99.90
8527;DHT22;4301;48.362;8.478;2023-05-10T13:04:50;16.10;1.00
8527;DHT22;4301;48.362;8.478;2023-05-10T13:07:17;16.10;1.00
8527;DHT22;4301;48.362;8.478;2023-05-10T13:09:44;16.80;1.40
8527;DHT22;4301;48.362;8.478;2023-05-10T13:12:13;16.70;99.90
8527;DHT22;4301;48.362;8.478;2023-05-10T13:14:40;17.10;99.90
8527;DHT22;4301;48.362;8.478;2023-05-10T13:17:07;17.20;87.40
8527;DHT22;4301;48.362;8.478;2023-05-10T13:19:35;17.10;99.90
8527;DHT22;4301;48.362;8.478;2023-05-10T13:22:02;16.50;1.00
8527;DHT22;4301;48.362;8.478;2023-05-10T13:24:29;16.90;1.00
8527;DHT22;4301;48.362;8.478;2023-05-10T13:26:56;17.20;97.90
8527;DHT22;4301;48.362;8.478;2023-05-10T13:29:23;17.00;1.00
8527;DHT22;4301;48.362;8.478;2023-05-10T13:31:50;16.60;1.00
8527;DHT22;4301;48.362;8.478;2023-05-10T13:34:18;16.70;99.90
8527;DHT22;4301;48.362;8.478;2023-05-10T13:36:47;16.80;1.00
8527;DHT22;4301;48.362;8.478;2023-05-10T13:39:14;16.70;43.30
8527;DHT22;4301;48.362;8.478;2023-05-10T13:41:41;15.90;95.30
8527;DHT22;4301;48.362;8.478;2023-05-10T13:44:08;15.60;99.90
8527;DHT22;4301;48.362;8.478;2023-05-10T13:46:37;15.30;99.90
8527;DHT22;4301;48.362;8.478;2023-05-10T13:49:04;14.90;1.00
8527;DHT22;4301;48.362;8.478;2023-05-10T13:51:31;14.90;99.90
8527;DHT22;4301;48.362;8.478;2023-05-10T13:54:00;14.80;1.00
8527;DHT22;4301;48.362;8.478;2023-05-10T13:56:27;14.50;99.90
8527;DHT22;4301;48.362;8.478;2023-05-10T13:58:54;14.30;1.00
8527;DHT22;4301;48.362;8.478;2023-05-10T14:01:21;14.10;1.00
8527;DHT22;4301;48.362;8.478;2023-05-10T14:03:48;14.30;99.90
8527;DHT22;4301;48.362;8.478;2023-05-10T14:06:15;14.30;61.60
8527;DHT22;4301;48.362;8.478;2023-05-10T14:08:42;13.90;1.00
8527;DHT22;4301;48.362;8.478;2023-05-10T14:11:10;13.80;1.00
8527;DHT22;4301;48.362;8.478;2023-05-10T14:13:37;13.70;99.90
8527;DHT22;4301;48.362;8.478;2023-05-10T14:16:04;13.70;1.00
8527;DHT22;4301;48.362;8.478;2023-05-10T14:18:31;13.40;1.00
8527;DHT22;4301;48.362;8.478;2023-05-10T14:20:58;13.40;1.00
8527;DHT22;4301;48.362;8.478;2023-05-10T14:23:25;13.30;1.00
8527;DHT22;4301;48.362;8.478;2023-05-10T14:25:54;13.30;1.00
8527;DHT22;4301;48.362;8.478;2023-05-10T14:28:22;13.30;1.00
8527;DHT22;4301;48.362;8.478;2023-05-10T14:30:50;13.30;1.00
8527;DHT22;4301;48.362;8.478;2023-05-10T14:33:17;13.50;1.00
8527;DHT22;4301;48.362;8.478;2023-05-10T14:35:45;13.60;1.00
8527;DHT22;4301;48.362;8.478;2023-05-10T14:38:12;13.70;99.90
8527;DHT22;4301;48.362;8.478;2023-05-10T14:40:39;13.40;99.90
8527;DHT22;4301;48.362;8.478;2023-05-10T14:43:06;13.10;1.00
8527;DHT22;4301;48.362;8.478;2023-05-10T14:45:34;13.10;1.00
8527;DHT22;4301;48.362;8.478;2023-05-10T14:48:01;12.90;1.00
8527;DHT22;4301;48.362;8.478;2023-05-10T14:50:30;12.70;1.00
8527;DHT22;4301;48.362;8.478;2023-05-10T14:52:57;12.50;1.00
8527;DHT22;4301;48.362;8.478;2023-05-10T14:55:24;12.50;1.00
8527;DHT22;4301;48.362;8.478;2023-05-10T14:57:51;12.30;1.00
8527;DHT22;4301;48.362;8.478;2023-05-10T15:00:19;12.30;2.40
8527;DHT22;4301;48.362;8.478;2023-05-10T15:02:47;11.90;43.40
8527;DHT22;4301;48.362;8.478;2023-05-10T15:05:15;11.80;17.80
8527;DHT22;4301;48.362;8.478;2023-05-10T15:07:41;11.60;78.80
8527;DHT22;4301;48.362;8.478;2023-05-10T15:10:09;11.40;18.40
8527;DHT22;4301;48.362;8.478;2023-05-10T15:12:37;11.20;52.30
8527;DHT22;4301;48.362;8.478;2023-05-10T15:15:05;11.20;62.60
8527;DHT22;4301;48.362;8.478;2023-05-10T15:17:33;11.20;92.80
8527;DHT22;4301;48.362;8.478;2023-05-10T15:20:01;11.20;92.80
8527;DHT22;4301;48.362;8.478;2023-05-10T15:22:29;11.30;99.90
8527;DHT22;4301;48.362;8.478;2023-05-10T15:24:57;11.20;99.60
8527;DHT22;4301;48.362;8.478;2023-05-10T15:27:24;11.10;90.10
8527;DHT22;4301;48.362;8.478;2023-05-10T15:29:51;11.30;96.00
8527;DHT22;4301;48.362;8.478;2023-05-10T15:32:18;11.50;89.70
8527;DHT22;4301;48.362;8.478;2023-05-10T15:34:45;11.60;69.00
8527;DHT22;4301;48.362;8.478;2023-05-10T15:37:13;11.80;30.30
8527;DHT22;4301;48.362;8.478;2023-05-10T15:39:40;11.90;14.70
8527;DHT22;4301;48.362;8.478;2023-05-10T15:42:07;12.10;4.50
8527;DHT22;4301;48.362;8.478;2023-05-10T15:44:34;12.20;57.00
8527;DHT22;4301;48.362;8.478;2023-05-10T15:47:04;12.30;69.50
8527;DHT22;4301;48.362;8.478;2023-05-10T15:49:31;12.50;1.00
8527;DHT22;4301;48.362;8.478;2023-05-10T15:51:57;12.60;1.00
8527;DHT22;4301;48.362;8.478;2023-05-10T15:54:26;12.60;58.00
8527;DHT22;4301;48.362;8.478;2023-05-10T15:56:53;12.60;25.70
8527;DHT22;4301;48.362;8.478;2023-05-10T15:59:20;12.70;27.30
8527;DHT22;4301;48.362;8.478;2023-05-10T16:01:47;12.90;1.00
8527;DHT22;4301;48.362;8.478;2023-05-10T16:04:15;12.90;1.00
8527;DHT22;4301;48.362;8.478;2023-05-10T16:06:42;12.80;1.00
8527;DHT22;4301;48.362;8.478;2023-05-10T16:09:09;12.80;1.00
8527;DHT22;4301;48.362;8.478;2023-05-10T16:11:38;12.80;1.00
8527;DHT22;4301;48.362;8.478;2023-05-10T16:14:05;12.70;1.00
8527;DHT22;4301;48.362;8.478;2023-05-10T16:16:32;12.70;1.00